Timeline UpdatesTrip UpdatesNews PostsPvt PostsTravel TipsAdmin PostsConv PostsFollowed PostsChat RequestsBlog PostsPNR Posts

Disclaimer
Search
 
 
Fri Aug 29, 2014 13:32:27 ISTHomeTrainsΣChainsAtlasPNRForumGalleryNewsFAQTripsMembersLoginFeedback
No Recent News for this Train
Other Trains in the News **new
Latest...
Monsoon TT Updated; W.e.f. 1st July to 30th September 2014
Mon Jun 30, 2014 (05:01PM)
⇐ Return Journey: Train# 16337

16338/Ernakulam-Okha Express

Jun 30 2014 (5:01PM)
Change Departure Station:
Change Arrival Station:
Post a Train Travel TipPost a Train Travel Tip **new
Post a Comment/Question/Picture/VideoPost a Comment/Question/Picture/Video
Pantry/Catering
✓ Pantry Car Avbl
✓ Catering Avbl
RSA - Rake Sharing
12683/84 Ernakulam Bangalore Express
Rake/Coach Composition
LOCO-SLR-GEN-GEN-S1-S2-S3-S4-S5-S6-S7-S8-S9-S10-PC-S11-S12-B1-B2-A1-GEN-SLR.; Author: Mahesh Kavthankar.; ; Entry# Re# 276092-1.
Loco
ERS WDM3A
News    PNR    Forum    Time-Table    Availability    Fare Chart    Map    Arr/Dep History    Trips    Gallery    ΣChains    X/O    Timeline    
Travel Time: 2h 38m    3 halts    Distance: 119 km    Avg Speed: 45 km/hr
Type: Mail/Express
Zone: SR/Southern
Departs @ 20:05 (Avg on time)
Platform# 1
   W F 
Ernakulam Junction (South)/ERS 
Arrives @ 22:43 (Avg 15m late)
Platform# ???
   W F 
Pattambi/PTB 

3 halts. 25 intermediate Stations between Ernakulam Junction (South) and Pattambi

Show ALL intermediate Stations  Show Old Time-Table

#CodeStation NameX/OArrivesAvgDepartsAvgHaltPFDay#KmSpeedElevZoneAddress
1ERS»Ernakulam Junction (South) (6)»  -20:05+0110.0653mSRErnakulam 682016, Kerala
2AWYAluva (3)  20:23+1620:25+172m3119.46112mSRPh: 0484-2624141, Kerala
3TCRThrissur (4)  21:19+1921:22+193m2174.0346mSRThrissur Tel: 0487 2423150, Kerala
4SRRShoranur Junction (7)X  22:20+722:30+1310m61106.95326mSRShoranur ph.no 0466-2222913, Kerala
5PTB•Pattambi (2)•  22:43+1522:45+142m--1118.56221mSRPattambi, Kerala
6KTUKuttippuram (2)X  23:03+1623:05+162m--1137.05017mSRKuttippuram, Kerala
7TIRTirur (3)  23:23+1323:25+132m--1152.0749mSRTel: 0494 2422240, Kerala
8PGIParappangadi (2)X  23:38+1723:40+172m--1168.16519mSRParappanangadi, Kerala
9FKFerok (2)  23:54+1923:55+201m--1183.32419mSRFeroke, Kerala
10CLTKozhikode Main (4)X  00:20+1300:25+145m42193.36311mSRCalicut Tel: 0495 2701234, Kerala
11QLDKoyilandy (3)  00:48+1600:50+152m--2217.67711mSRQuilandi, Kerala
12BDJVadakara (2)  01:07+1601:09+162m22239.56611mSRCalicut / Station Ph No : 0496-2524254, Kerala
13TLYThalassery (2)  01:29+1701:30+181m62261.6419mSRKannur, Kerala
14CANKannur Main (4)  02:00+1302:05+145m12282.36714mSRKannur Tel: 0497 2705555, Kerala
15KPQKannapuram (2)  02:18+1402:20+132m12296.8649mSRKannur District, Kerala
16PAYPayyanur (3)  02:38+1202:40+122m--2316.0530mSRKannur District, Kerala
17KZEKanhangad (3)  03:13+1503:15+152m--2345.26015mSRKanhangad, Kerala
18KGQKasaragod (3)  03:38+603:40+72m--2368.44218mSRTel: 04994 220800, Kerala
19MAJNMangalore Junction (3)X  04:50-105:00+1010m12417.43124mSRMangalore 575001, Karnataka
20SLSurathkal (1)  05:40+505:42+102m12438.07022mKRSurathkal, Karnataka
21UDUdupi (2)  06:18+906:20+92m--2479.88018mKRUdupi, Karnataka
22KUDAKundapura (2)X  06:44+2206:46+232m12511.85313mKRKundapura - 576211, Karnataka
23BYNRByndoor Mookambika Road (1)  07:24+007:26+02m12545.45110mKRUdupi Dist. 576214, Karnataka
24BTJLBhatkal (2)  07:44+2207:46+332m--2560.65316mKRBhatkal - 581320, Karnataka
25HNAHonnavar (2)  08:32+2208:34+282m--2601.5474mKRUttara Kannada Dist, Karnataka
26KAWRKarwar (2)  10:02+2810:04+302m--2670.44314mKRKarwar, Karnataka
27MAOMadgaon Junction (3)  11:30+2111:40+2810m22731.75211mKRMadgaon 403601, Goa
28THVMThivim (2)  12:32+3712:34+392m12776.65521mKRThivim - 403502, Goa
29KKWKankavali (2)  14:00+3014:02+272m12855.26845mKRKankavli - 416602, Maharashtra
30RNRatnagiri (3)X  15:40+3415:45+355m22966.650129mKRRatnagiri 415612, Maharashtra
31MNIMangaon (2)  19:12+3519:14+362m121139.55112mKRMangaon - 402104, Maharashtra
32PNVLPanvel Junction (7)X  21:20+3221:25+375m621245.7-10mCRPanvel, Maharashtra
33BIRDBhiwandi Road (4)X  22:23+1222:25+112m421587.03626mCRBhiwandi, Maharashtra
34BSRVasai Road (7)  23:10+2823:15+305m621614.3607mWRVasai 401202, Maharashtra
35BORBoisar (3)00:06+3500:08+352m--31665.17217mWRBoisar Tel.no-02525-266626, Maharashtra
36BLValsad (3)X  01:28+3901:30+452m131761.64815mWRValsad, Gujarat
37NVSNavsari (3)X  02:19+2502:20+271m131800.73614mWRNavsari, Gujarat
38STSurat (4)  03:10+1503:22+1612m131830.37519mWRSurat 395001, Gujarat
39AKVAnkleshwar Junction (4)XO  04:02+2904:04+292m131880.27019mWRAnkleshwar, Gujarat
40BRCVadodara Junction (7)X  05:12+3505:22+3810m231960.16736mWRVadodara 390005, Gujarat
41ANNDAnand Junction (6)X  05:54+4:3005:56+4:302m231995.86144mWRAnand, Gujarat
42MANManinagar (2)  06:56-06:58-2m132056.71150mWRAhmadabad, Gujarat
43ADIAhmedabad Junction (12)  07:15+4907:35+4320m132059.96351mWRAhmedabad, Gujarat
44VGViramgam Junction (5)  08:37+2708:39+282m132125.34729mWRViramgam, Gujarat
45SUNRSurendranagar Junction (4)  10:03+3210:05+322m--32190.95472mWRSurendra Nagar, Gujarat
46RJTRajkot Junction (5)X  12:13+2112:28+2415m232306.958128mWRRajkot, Gujarat
47HAPAHapa (3)  13:46+2713:48+402m--32382.83716mWRJamnagar, Gujarat
48JAMJamnagar (2)X  14:02+3914:05+443m--32391.54814mWRJamnagar, Gujarat
49KMBLKhambhalia  15:13+3515:15+352m--32445.86949mWRKhambhalia, Gujarat
50DWKDwarka (2)  16:28+2616:30+282m--32529.83114mWRDwarka, Gujarat
51OKHAOkha (3)  17:25+11-132558.5-5mWROkha, Gujarat
Scroll to Top
Scroll to Bottom